sensor_id;sensor_type;location;lat;lon;timestamp;P1;durP1;ratioP1;P2;durP2;ratioP2
22849;SDS011;11591;44.792;10.358;2022-12-07T00:01:04;41.15;;;19.83;;
22849;SDS011;11591;44.792;10.358;2022-12-07T00:03:34;41.15;;;18.13;;
22849;SDS011;11591;44.792;10.358;2022-12-07T00:06:01;43.33;;;20.15;;
22849;SDS011;11591;44.792;10.358;2022-12-07T00:08:28;48.00;;;21.48;;
22849;SDS011;11591;44.792;10.358;2022-12-07T00:10:55;47.65;;;22.17;;
22849;SDS011;11591;44.792;10.358;2022-12-07T00:13:25;54.92;;;22.33;;
22849;SDS011;11591;44.792;10.358;2022-12-07T00:15:51;45.13;;;21.88;;
22849;SDS011;11591;44.792;10.358;2022-12-07T00:18:16;56.05;;;25.65;;
22849;SDS011;11591;44.792;10.358;2022-12-07T00:20:42;58.10;;;24.45;;
22849;SDS011;11591;44.792;10.358;2022-12-07T00:23:08;44.13;;;20.60;;
22849;SDS011;11591;44.792;10.358;2022-12-07T00:25:34;45.35;;;21.65;;
22849;SDS011;11591;44.792;10.358;2022-12-07T00:28:00;44.72;;;20.08;;
22849;SDS011;11591;44.792;10.358;2022-12-07T00:30:25;41.58;;;18.77;;
22849;SDS011;11591;44.792;10.358;2022-12-07T00:32:51;41.13;;;18.77;;
22849;SDS011;11591;44.792;10.358;2022-12-07T00:35:17;34.40;;;16.98;;
22849;SDS011;11591;44.792;10.358;2022-12-07T00:37:43;31.10;;;16.20;;
22849;SDS011;11591;44.792;10.358;2022-12-07T00:40:09;34.70;;;16.60;;
22849;SDS011;11591;44.792;10.358;2022-12-07T00:42:35;34.72;;;15.75;;
22849;SDS011;11591;44.792;10.358;2022-12-07T00:45:01;32.35;;;15.35;;
22849;SDS011;11591;44.792;10.358;2022-12-07T00:47:26;30.42;;;15.35;;
22849;SDS011;11591;44.792;10.358;2022-12-07T00:49:52;30.85;;;15.07;;
22849;SDS011;11591;44.792;10.358;2022-12-07T00:52:18;34.38;;;15.93;;
22849;SDS011;11591;44.792;10.358;2022-12-07T00:54:44;31.23;;;16.63;;
22849;SDS011;11591;44.792;10.358;2022-12-07T00:57:10;39.40;;;17.23;;
22849;SDS011;11591;44.792;10.358;2022-12-07T00:59:35;31.52;;;15.43;;
22849;SDS011;11591;44.792;10.358;2022-12-07T01:02:01;28.55;;;15.43;;
22849;SDS011;11591;44.792;10.358;2022-12-07T01:04:27;36.72;;;16.00;;
22849;SDS011;11591;44.792;10.358;2022-12-07T01:06:53;33.38;;;16.13;;
22849;SDS011;11591;44.792;10.358;2022-12-07T01:09:19;32.22;;;16.33;;
22849;SDS011;11591;44.792;10.358;2022-12-07T01:11:44;34.22;;;15.35;;
22849;SDS011;11591;44.792;10.358;2022-12-07T01:14:10;28.88;;;14.98;;
22849;SDS011;11591;44.792;10.358;2022-12-07T01:16:36;32.63;;;15.90;;
22849;SDS011;11591;44.792;10.358;2022-12-07T01:19:05;31.55;;;15.45;;
22849;SDS011;11591;44.792;10.358;2022-12-07T01:21:32;27.63;;;13.95;;
22849;SDS011;11591;44.792;10.358;2022-12-07T01:24:03;29.88;;;14.73;;
22849;SDS011;11591;44.792;10.358;2022-12-07T01:26:30;28.83;;;14.07;;
22849;SDS011;11591;44.792;10.358;2022-12-07T01:28:56;30.05;;;14.52;;
22849;SDS011;11591;44.792;10.358;2022-12-07T01:31:25;28.73;;;14.65;;
22849;SDS011;11591;44.792;10.358;2022-12-07T01:33:52;39.67;;;19.30;;
22849;SDS011;11591;44.792;10.358;2022-12-07T01:36:24;28.38;;;14.80;;
22849;SDS011;11591;44.792;10.358;2022-12-07T01:38:57;32.60;;;15.07;;
22849;SDS011;11591;44.792;10.358;2022-12-07T01:41:25;33.95;;;15.40;;
22849;SDS011;11591;44.792;10.358;2022-12-07T01:44:13;27.58;;;14.13;;
22849;SDS011;11591;44.792;10.358;2022-12-07T01:46:50;29.45;;;14.88;;
22849;SDS011;11591;44.792;10.358;2022-12-07T01:49:23;29.83;;;14.82;;
22849;SDS011;11591;44.792;10.358;2022-12-07T01:54:54;31.17;;;15.30;;
22849;SDS011;11591;44.792;10.358;2022-12-07T01:57:28;35.55;;;17.02;;
22849;SDS011;11591;44.792;10.358;2022-12-07T01:59:55;35.65;;;15.95;;
22849;SDS011;11591;44.792;10.358;2022-12-07T02:02:26;30.25;;;15.23;;
22849;SDS011;11591;44.792;10.358;2022-12-07T02:04:57;35.55;;;17.10;;
22849;SDS011;11591;44.792;10.358;2022-12-07T02:07:26;35.83;;;16.13;;
22849;SDS011;11591;44.792;10.358;2022-12-07T02:09:53;38.88;;;17.92;;
22849;SDS011;11591;44.792;10.358;2022-12-07T02:12:19;39.97;;;18.40;;
22849;SDS011;11591;44.792;10.358;2022-12-07T02:14:45;41.17;;;17.67;;
22849;SDS011;11591;44.792;10.358;2022-12-07T02:17:14;38.33;;;17.52;;
22849;SDS011;11591;44.792;10.358;2022-12-07T02:27:56;42.83;;;19.30;;
22849;SDS011;11591;44.792;10.358;2022-12-07T02:30:31;41.53;;;17.83;;
22849;SDS011;11591;44.792;10.358;2022-12-07T02:33:00;41.20;;;19.55;;
22849;SDS011;11591;44.792;10.358;2022-12-07T02:38:23;46.58;;;20.90;;
22849;SDS011;11591;44.792;10.358;2022-12-07T02:41:07;44.28;;;21.08;;
22849;SDS011;11591;44.792;10.358;2022-12-07T02:43:35;46.08;;;20.92;;
22849;SDS011;11591;44.792;10.358;2022-12-07T02:46:14;44.88;;;20.48;;
22849;SDS011;11591;44.792;10.358;2022-12-07T02:48:47;45.72;;;20.30;;
22849;SDS011;11591;44.792;10.358;2022-12-07T02:51:17;51.50;;;22.48;;
22849;SDS011;11591;44.792;10.358;2022-12-07T02:53:43;43.55;;;20.60;;
22849;SDS011;11591;44.792;10.358;2022-12-07T03:01:52;51.42;;;21.98;;
22849;SDS011;11591;44.792;10.358;2022-12-07T03:06:58;45.00;;;21.30;;
22849;SDS011;11591;44.792;10.358;2022-12-07T03:09:35;44.90;;;21.23;;
22849;SDS011;11591;44.792;10.358;2022-12-07T03:12:19;52.40;;;22.73;;
22849;SDS011;11591;44.792;10.358;2022-12-07T03:14:52;54.83;;;23.00;;
22849;SDS011;11591;44.792;10.358;2022-12-07T03:17:42;48.22;;;22.23;;
22849;SDS011;11591;44.792;10.358;2022-12-07T03:20:12;45.63;;;22.52;;
22849;SDS011;11591;44.792;10.358;2022-12-07T03:22:41;48.53;;;22.75;;
22849;SDS011;11591;44.792;10.358;2022-12-07T03:25:10;49.60;;;23.05;;
22849;SDS011;11591;44.792;10.358;2022-12-07T03:27:55;52.67;;;23.90;;
22849;SDS011;11591;44.792;10.358;2022-12-07T03:30:32;54.72;;;26.08;;
22849;SDS011;11591;44.792;10.358;2022-12-07T03:33:12;55.25;;;25.75;;
22849;SDS011;11591;44.792;10.358;2022-12-07T03:36:00;52.53;;;24.67;;
22849;SDS011;11591;44.792;10.358;2022-12-07T03:38:44;51.15;;;23.50;;
22849;SDS011;11591;44.792;10.358;2022-12-07T03:41:21;51.50;;;24.95;;
22849;SDS011;11591;44.792;10.358;2022-12-07T03:43:49;52.22;;;22.95;;
22849;SDS011;11591;44.792;10.358;2022-12-07T03:49:04;46.85;;;21.60;;
22849;SDS011;11591;44.792;10.358;2022-12-07T03:57:25;48.17;;;22.50;;
22849;SDS011;11591;44.792;10.358;2022-12-07T03:59:53;50.75;;;22.70;;
22849;SDS011;11591;44.792;10.358;2022-12-07T04:02:21;48.33;;;22.10;;
22849;SDS011;11591;44.792;10.358;2022-12-07T04:04:48;50.92;;;23.88;;
22849;SDS011;11591;44.792;10.358;2022-12-07T04:07:14;48.72;;;23.00;;
22849;SDS011;11591;44.792;10.358;2022-12-07T04:09:40;49.88;;;23.27;;
22849;SDS011;11591;44.792;10.358;2022-12-07T04:12:06;45.17;;;21.83;;
22849;SDS011;11591;44.792;10.358;2022-12-07T04:14:32;52.00;;;23.17;;
22849;SDS011;11591;44.792;10.358;2022-12-07T04:16:58;45.88;;;22.33;;
22849;SDS011;11591;44.792;10.358;2022-12-07T04:19:25;48.20;;;23.45;;
22849;SDS011;11591;44.792;10.358;2022-12-07T04:21:53;47.33;;;22.38;;
22849;SDS011;11591;44.792;10.358;2022-12-07T04:24:19;47.90;;;22.83;;
22849;SDS011;11591;44.792;10.358;2022-12-07T04:26:46;46.25;;;21.17;;
22849;SDS011;11591;44.792;10.358;2022-12-07T04:29:12;45.78;;;22.98;;
22849;SDS011;11591;44.792;10.358;2022-12-07T04:31:39;47.97;;;22.75;;
22849;SDS011;11591;44.792;10.358;2022-12-07T04:34:05;48.58;;;23.23;;
22849;SDS011;11591;44.792;10.358;2022-12-07T04:36:32;49.67;;;22.77;;
22849;SDS011;11591;44.792;10.358;2022-12-07T04:38:58;53.08;;;23.80;;
22849;SDS011;11591;44.792;10.358;2022-12-07T04:41:25;62.72;;;25.27;;
22849;SDS011;11591;44.792;10.358;2022-12-07T04:43:57;60.88;;;25.83;;
22849;SDS011;11591;44.792;10.358;2022-12-07T04:46:25;48.95;;;22.55;;
22849;SDS011;11591;44.792;10.358;2022-12-07T04:48:52;47.38;;;21.77;;
22849;SDS011;11591;44.792;10.358;2022-12-07T04:51:20;41.95;;;21.52;;
22849;SDS011;11591;44.792;10.358;2022-12-07T04:53:47;43.00;;;21.70;;
22849;SDS011;11591;44.792;10.358;2022-12-07T04:56:14;44.92;;;22.20;;
22849;SDS011;11591;44.792;10.358;2022-12-07T04:58:41;44.60;;;21.65;;
22849;SDS011;11591;44.792;10.358;2022-12-07T05:01:08;46.33;;;22.17;;
22849;SDS011;11591;44.792;10.358;2022-12-07T05:03:35;45.17;;;20.55;;
22849;SDS011;11591;44.792;10.358;2022-12-07T05:06:02;42.97;;;21.00;;
22849;SDS011;11591;44.792;10.358;2022-12-07T05:08:28;43.03;;;20.88;;
22849;SDS011;11591;44.792;10.358;2022-12-07T05:10:55;40.47;;;20.08;;
22849;SDS011;11591;44.792;10.358;2022-12-07T05:13:20;42.58;;;21.08;;
22849;SDS011;11591;44.792;10.358;2022-12-07T05:15:47;39.33;;;19.67;;
22849;SDS011;11591;44.792;10.358;2022-12-07T05:18:13;42.00;;;20.20;;
22849;SDS011;11591;44.792;10.358;2022-12-07T05:20:40;39.95;;;19.48;;
22849;SDS011;11591;44.792;10.358;2022-12-07T05:23:06;40.08;;;19.20;;
22849;SDS011;11591;44.792;10.358;2022-12-07T05:25:32;47.13;;;20.52;;
22849;SDS011;11591;44.792;10.358;2022-12-07T05:27:58;38.80;;;18.92;;
22849;SDS011;11591;44.792;10.358;2022-12-07T05:30:24;39.90;;;19.25;;
22849;SDS011;11591;44.792;10.358;2022-12-07T05:32:50;39.70;;;19.42;;
22849;SDS011;11591;44.792;10.358;2022-12-07T05:35:17;37.45;;;19.27;;
22849;SDS011;11591;44.792;10.358;2022-12-07T05:37:43;40.42;;;18.35;;
22849;SDS011;11591;44.792;10.358;2022-12-07T05:40:10;38.85;;;18.98;;
22849;SDS011;11591;44.792;10.358;2022-12-07T05:42:37;39.63;;;18.40;;
22849;SDS011;11591;44.792;10.358;2022-12-07T05:45:04;38.10;;;18.42;;
22849;SDS011;11591;44.792;10.358;2022-12-07T05:47:30;39.13;;;18.33;;
22849;SDS011;11591;44.792;10.358;2022-12-07T05:49:56;41.13;;;19.73;;
22849;SDS011;11591;44.792;10.358;2022-12-07T05:52:22;36.08;;;18.65;;
22849;SDS011;11591;44.792;10.358;2022-12-07T05:54:48;34.25;;;18.20;;
22849;SDS011;11591;44.792;10.358;2022-12-07T05:57:14;42.40;;;18.73;;
22849;SDS011;11591;44.792;10.358;2022-12-07T05:59:40;39.85;;;18.85;;
22849;SDS011;11591;44.792;10.358;2022-12-07T06:02:07;38.40;;;18.45;;
22849;SDS011;11591;44.792;10.358;2022-12-07T06:04:36;40.53;;;19.95;;
22849;SDS011;11591;44.792;10.358;2022-12-07T06:07:04;47.53;;;22.58;;
22849;SDS011;11591;44.792;10.358;2022-12-07T06:09:30;45.88;;;20.50;;
22849;SDS011;11591;44.792;10.358;2022-12-07T06:11:57;37.72;;;19.20;;
22849;SDS011;11591;44.792;10.358;2022-12-07T06:14:42;40.33;;;18.58;;
22849;SDS011;11591;44.792;10.358;2022-12-07T06:17:08;44.05;;;20.10;;
22849;SDS011;11591;44.792;10.358;2022-12-07T06:19:34;43.33;;;19.30;;
22849;SDS011;11591;44.792;10.358;2022-12-07T06:22:00;42.33;;;18.90;;
22849;SDS011;11591;44.792;10.358;2022-12-07T06:24:26;43.92;;;19.80;;
22849;SDS011;11591;44.792;10.358;2022-12-07T06:26:52;42.63;;;20.00;;
22849;SDS011;11591;44.792;10.358;2022-12-07T06:29:18;44.78;;;19.75;;
22849;SDS011;11591;44.792;10.358;2022-12-07T06:31:44;40.45;;;18.35;;
22849;SDS011;11591;44.792;10.358;2022-12-07T06:34:12;44.58;;;19.67;;
22849;SDS011;11591;44.792;10.358;2022-12-07T06:36:43;43.10;;;19.80;;
22849;SDS011;11591;44.792;10.358;2022-12-07T06:39:09;44.25;;;19.85;;
22849;SDS011;11591;44.792;10.358;2022-12-07T06:41:36;39.95;;;20.00;;
22849;SDS011;11591;44.792;10.358;2022-12-07T06:44:03;45.67;;;19.50;;
22849;SDS011;11591;44.792;10.358;2022-12-07T06:46:32;42.65;;;19.73;;
22849;SDS011;11591;44.792;10.358;2022-12-07T06:49:00;43.72;;;19.75;;
22849;SDS011;11591;44.792;10.358;2022-12-07T06:51:26;43.53;;;18.70;;
